Brooks, KY (40109)

9:04 AM EDT on August 30, 2015 (GMT -0400)
MESOTRACK WeatherLAB | | Change Station
CLOSE
Current Station
Personal Weather Station
Location: Shepherdsville, KY
Elevation: 554 ft
Nearby Weather Stations

Elev 554 ft 38.01 °N, 85.66 °W | Updated 2 seconds ago

Mostly Cloudy
Mostly Cloudy
70.7 °F
Feels Like 71 °F
N
0.0
Wind Variable Wind from South
Gusts 1.0 mph

Today
High -- | Low -- °F
--% Chance of Precip.
Yesterday
High -- | Low -- °F
Precip. -- in
7:10 AM 8:15 PM
Full, 99% visible
Pressure 30.09 in
Visibility 10.0 miles
Clouds Few 6500 ft
Mostly Cloudy 17000 ft
Mostly Cloudy 25000 ft
Heat Index 71 °F
Dew Point 65 °F
Humidity 81%
Rainfall 0.00 in
Snow Depth Not available.
UV 1 out of 12
Pollen 9.50 out of 12
Air Quality Not available.
Flu Activity Not available.
METAR KSDF 301256Z 18005KT 10SM FEW065 BKN170 BKN250 23/19 A3010 RMK AO2 SLP189 T02330189
Pressure 30.09 in
Visibility 10.0 miles
Clouds Few 6500 ft
Mostly Cloudy 17000 ft
Mostly Cloudy 25000 ft
Heat Index 71 °F
Dew Point 65 °F
Humidity 81%
Rainfall 0.00 in
Snow Depth Not available.
UV 1 out of 12
Pollen 9.50 out of 12
Air Quality Not available.
Flu Activity Not available.
METAR KSDF 301256Z 18005KT 10SM FEW065 BKN170 BKN250 23/19 A3010 RMK AO2 SLP189 T02330189

10-Day Weather Forecast

×

Almanac

Astronomy

Aug. 30, 2015 Rise Set
Actual Time
Civil Twilight
Nautical Twilight
Astronomical Twilight
Moon
Length of Visible Light
Length of Day
Tomorrow will be .
, % of the Moon is Illuminated

Today's Extremes

State Highs State Lows

Community

WunderPhotos

Upload Photos

1,850,945 photos uploaded!

WunderBlogs® & News

Nearby

Air Quality

  Air Quality AQ Index Pollutant
Not available.

Snow Depth

Station Depth Elevation

Earthquake Activity

City Distance Mag. Time & Date
Minimum magnitude displayed is 2.5.

Coastal Water Temperatures

Place Temperature

Stations

Nearby Weather Stations

Station Location Temp. Windchill Dew Point Humidity Wind Precip. Elev Updated Type